Montevideo, MN (56265)

10:59 PM CDT op 30 oktober 2014 (GMT -0500)
Near Chinhinta Park | Change Station
CLOSE
Current Station
Persoonlijk weerstation
Location: Montevideo, MN
Geometrische hoogte: 1024 ft
Nabije weerstations

Hoogte 1024 ft 44.94 °N, 95.72 °W | Updated 1 second ago

Clear
Helder
30.4 °F
Voelt als 30 °F
N
3.0
Wind Variabel Wind van noord
Gusts 7.0 mijl/u

Vandaag
Hoog -- | Laag -- °F
--% Kans op neerslag
Gisteren
Hoog -- | Laag -- °F
Precip. -- inches
7:58 AM 6:13 PM
Wassende halvemaan, 51% visible
Druk 30.47 inches
Zicht 10.0 mijlen
Wolken Helder
Gevoelstemperatuur 30 °F
Dauwpunt 23 °F
Vochtigheid 74%
Neerslag 0.04 inches
Dikte sneeuw Niet beschikbaar.
UV 0 van de 12
Pollen .40 van de 12
Luchtkwaliteit Niet beschikbaar.
Flu Activity Niet beschikbaar.
METAR KMVE 310354Z AUTO 01010G15KT 10SM CLR M01/M04 A3047 RMK AO2

More Conditions Fewer Conditions

Druk 30.47 inches
Zicht 10.0 mijlen
Wolken Helder
Gevoelstemperatuur 30 °F
Dauwpunt 23 °F
Vochtigheid 74%
Neerslag 0.04 inches
Dikte sneeuw Niet beschikbaar.
UV 0 van de 12
Pollen .40 van de 12
Luchtkwaliteit Niet beschikbaar.
Flu Activity Niet beschikbaar.
METAR KMVE 310354Z AUTO 01010G15KT 10SM CLR M01/M04 A3047 RMK AO2

More Conditions Fewer Conditions

10-Day Weather Forecast

Almanac

Astronomie

Oct. 30, 2014 Opkomst Ondergang
Werkelijke tijd
Burgerlijke schemering
Nautische schemering
Astronomische schemering
Maan
Golflengte van het zichtbare licht
Daglengte
Tomorrow will be .
, % of the Moon is Illuminated

Extremen vandaag

State Highs State Lows

Community

WunderPhotos

Upload Photos

1,766,559 foto’s ge-upload!

WunderBlogs® & News

Nearby

Luchtkwaliteit

  Luchtkwaliteit LK-index Verontreinigende stof
Not available.

Dikte sneeuw

Station Depth Geometrische hoogte

Aardbevingen

Stad Distance Mag. Time & Date
Minimum magnitude displayed is 2.5.

Watertemperatuur langs de kust

Plaats Temperatuur

Nabije weerstations